createdAt,value
2022-08-03T00:00:04.627Z,74
2022-08-03T00:02:05.338Z,74
2022-08-03T00:06:05.183Z,75
2022-08-03T00:08:08.730Z,75
2022-08-03T00:10:04.385Z,75
2022-08-03T00:12:04.399Z,75
2022-08-03T00:14:04.350Z,75
2022-08-03T00:16:04.358Z,75
2022-08-03T00:18:05.466Z,74
2022-08-03T00:20:07.038Z,74
2022-08-03T00:22:04.379Z,74
2022-08-03T00:24:04.331Z,74
2022-08-03T00:26:10.882Z,75
2022-08-03T00:28:04.320Z,75
2022-08-03T00:30:05.419Z,75
2022-08-03T00:32:06.018Z,75
2022-08-03T00:34:07.311Z,73
2022-08-03T00:36:04.348Z,73
2022-08-03T00:38:04.403Z,73
2022-08-03T00:40:04.139Z,73
2022-08-03T00:42:04.356Z,74
2022-08-03T00:44:04.351Z,74
2022-08-03T00:46:05.417Z,75
2022-08-03T00:48:06.008Z,75
2022-08-03T00:50:04.334Z,75
2022-08-03T00:52:07.786Z,75
2022-08-03T00:54:05.417Z,75
2022-08-03T00:56:04.368Z,75
2022-08-03T00:58:08.759Z,76
2022-08-03T01:00:05.487Z,76
2022-08-03T01:02:04.392Z,75
2022-08-03T01:04:04.376Z,75
2022-08-03T01:06:07.572Z,75
2022-08-03T01:08:04.398Z,76
2022-08-03T01:10:05.495Z,75
2022-08-03T01:12:07.532Z,75
2022-08-03T01:14:18.446Z,75
2022-08-03T01:16:08.820Z,75
2022-08-03T01:18:04.459Z,75
2022-08-03T01:20:05.684Z,74
2022-08-03T01:22:05.518Z,74
2022-08-03T01:24:07.517Z,76
2022-08-03T01:26:08.469Z,77
2022-08-03T01:28:05.465Z,77
2022-08-03T01:30:08.791Z,76
2022-08-03T01:32:52.020Z,77
2022-08-03T01:34:04.392Z,77
2022-08-03T01:38:04.797Z,77
2022-08-03T01:40:05.422Z,77
2022-08-03T01:44:28.844Z,78
2022-08-03T01:46:05.398Z,77
2022-08-03T01:48:04.372Z,77
2022-08-03T01:50:04.513Z,77
2022-08-03T01:52:05.344Z,78
2022-08-03T01:54:07.532Z,78
2022-08-03T01:56:04.385Z,78
2022-08-03T01:58:07.572Z,78
2022-08-03T02:00:06.027Z,78
2022-08-03T02:02:15.195Z,77
2022-08-03T02:04:08.505Z,78
2022-08-03T02:07:02.475Z,79
2022-08-03T02:08:04.367Z,79
2022-08-03T02:10:11.596Z,79
2022-08-03T02:12:05.389Z,79
2022-08-03T02:14:07.625Z,79
2022-08-03T02:16:08.322Z,79
2022-08-03T02:18:04.178Z,79
2022-08-03T02:20:07.529Z,79
2022-08-03T02:22:04.358Z,80
2022-08-03T02:24:04.399Z,79
2022-08-03T02:26:04.398Z,80
2022-08-03T02:28:04.837Z,80
2022-08-03T02:30:07.516Z,81
2022-08-03T02:32:07.456Z,80
2022-08-03T02:34:04.395Z,80
2022-08-03T02:36:08.607Z,80
2022-08-03T02:38:04.406Z,80
2022-08-03T02:42:04.644Z,80
2022-08-03T02:44:07.252Z,81
2022-08-03T02:46:04.477Z,81
2022-08-03T02:48:04.388Z,81
2022-08-03T02:50:07.565Z,81
2022-08-03T02:52:04.383Z,81
2022-08-03T02:54:05.037Z,81
2022-08-03T02:56:08.812Z,81
2022-08-03T02:58:07.542Z,81
2022-08-03T03:00:04.594Z,81
2022-08-03T03:02:04.445Z,81
2022-08-03T03:04:05.407Z,81
2022-08-03T03:06:04.860Z,81
2022-08-03T03:08:05.115Z,81
2022-08-03T03:10:04.371Z,81
2022-08-03T03:12:07.540Z,81
2022-08-03T03:16:07.554Z,81
2022-08-03T03:20:05.452Z,81
2022-08-03T03:22:04.391Z,81
2022-08-03T03:26:08.569Z,81
2022-08-03T03:30:04.416Z,82
2022-08-03T03:32:08.246Z,81
2022-08-03T03:34:07.523Z,81
2022-08-03T03:36:04.375Z,81
2022-08-03T03:38:04.420Z,81
2022-08-03T03:40:04.389Z,82
2022-08-03T03:42:04.365Z,82
2022-08-03T03:44:04.391Z,82
2022-08-03T03:46:08.439Z,81
2022-08-03T03:48:10.184Z,82
2022-08-03T03:50:04.358Z,82
2022-08-03T03:54:04.397Z,82
2022-08-03T03:56:05.396Z,82
2022-08-03T03:58:04.397Z,82
2022-08-03T04:00:05.571Z,82
2022-08-03T04:02:04.396Z,82
2022-08-03T04:04:04.403Z,82
2022-08-03T04:06:04.450Z,82
2022-08-03T04:08:05.409Z,82
2022-08-03T04:10:14.677Z,82
2022-08-03T04:12:02.235Z,82
2022-08-03T04:14:06.355Z,81
2022-08-03T04:16:05.086Z,82
2022-08-03T04:18:05.081Z,82
2022-08-03T04:20:05.114Z,81
2022-08-03T04:22:08.530Z,81
2022-08-03T04:24:05.091Z,80
2022-08-03T04:26:05.050Z,79
2022-08-03T04:28:29.358Z,80
2022-08-03T04:30:08.204Z,80
2022-08-03T04:32:06.397Z,81
2022-08-03T04:36:04.813Z,81
2022-08-03T04:38:05.120Z,81
2022-08-03T04:40:08.074Z,81
2022-08-03T04:42:08.470Z,81
2022-08-03T04:44:08.180Z,82
2022-08-03T04:46:05.655Z,81
2022-08-03T04:48:05.067Z,81
2022-08-03T04:50:12.001Z,81
2022-08-03T04:52:05.048Z,82
2022-08-03T04:54:05.076Z,82
2022-08-03T04:56:05.093Z,82
2022-08-03T04:58:12.843Z,82
2022-08-03T05:00:05.067Z,81
2022-08-03T05:02:05.145Z,81
2022-08-03T05:04:08.195Z,81
2022-08-03T05:06:10.132Z,81
2022-08-03T05:08:05.075Z,80
2022-08-03T05:10:05.316Z,80
2022-08-03T05:12:05.091Z,80
2022-08-03T05:14:05.107Z,79
2022-08-03T05:16:05.076Z,79
2022-08-03T05:18:12.017Z,79
2022-08-03T05:20:11.290Z,79
2022-08-03T05:22:05.078Z,79
2022-08-03T05:24:09.499Z,78
2022-08-03T05:26:05.099Z,79
2022-08-03T05:28:05.080Z,79
2022-08-03T05:30:26.445Z,79
2022-08-03T05:32:08.267Z,79
2022-08-03T05:34:05.091Z,78
2022-08-03T05:38:05.071Z,78
2022-08-03T05:40:05.105Z,77
2022-08-03T05:42:05.352Z,76
2022-08-03T05:44:05.053Z,69
2022-08-03T05:48:09.919Z,60
2022-08-03T05:50:08.040Z,59
2022-08-03T05:52:12.537Z,59
2022-08-03T05:54:05.118Z,59
2022-08-03T05:56:13.379Z,59
2022-08-03T05:58:05.092Z,59
2022-08-03T06:00:05.759Z,59
2022-08-03T06:02:05.161Z,59
2022-08-03T06:04:05.162Z,60
2022-08-03T06:06:05.099Z,60
2022-08-03T06:12:08.366Z,60
2022-08-03T06:14:05.063Z,60
2022-08-03T06:16:06.502Z,60
2022-08-03T06:18:05.113Z,60
2022-08-03T06:22:05.121Z,60
2022-08-03T06:24:06.245Z,60
2022-08-03T06:26:08.060Z,60
2022-08-03T06:28:05.055Z,60
2022-08-03T06:32:06.507Z,60
2022-08-03T06:34:31.946Z,60
2022-08-03T06:36:06.477Z,60
2022-08-03T06:38:05.076Z,60
2022-08-03T06:40:15.678Z,60
2022-08-03T06:42:05.071Z,60
2022-08-03T06:44:10.286Z,60
2022-08-03T06:46:06.869Z,60
2022-08-03T06:48:06.736Z,59
2022-08-03T06:50:13.185Z,59
2022-08-03T06:52:06.847Z,60
2022-08-03T06:54:10.703Z,61
2022-08-03T06:56:06.631Z,62
2022-08-03T06:58:05.121Z,62
2022-08-03T07:02:12.772Z,63
2022-08-03T07:06:11.207Z,61
2022-08-03T07:08:06.440Z,62
2022-08-03T07:12:06.790Z,59
2022-08-03T07:14:05.363Z,59
2022-08-03T07:16:08.231Z,59
2022-08-03T07:18:06.475Z,58
2022-08-03T07:20:05.091Z,59
2022-08-03T07:22:06.922Z,59
2022-08-03T07:24:08.229Z,57
2022-08-03T07:26:05.074Z,58
2022-08-03T07:28:05.034Z,58
2022-08-03T07:32:05.134Z,56
2022-08-03T07:34:05.113Z,57
2022-08-03T07:36:05.090Z,56
2022-08-03T07:38:08.483Z,56
2022-08-03T07:40:05.081Z,55
2022-08-03T07:42:05.039Z,54
2022-08-03T07:44:05.134Z,55
2022-08-03T07:46:08.213Z,55
2022-08-03T07:48:08.811Z,54
2022-08-03T07:50:05.057Z,54
2022-08-03T07:52:06.570Z,54
2022-08-03T07:54:06.720Z,54
2022-08-03T07:56:05.737Z,53
2022-08-03T07:58:06.510Z,54
2022-08-03T08:00:05.177Z,54
2022-08-03T08:02:06.945Z,54
2022-08-03T08:04:05.113Z,54
2022-08-03T08:06:05.135Z,54
2022-08-03T08:10:05.103Z,54
2022-08-03T08:12:05.032Z,54
2022-08-03T08:14:07.878Z,54
2022-08-03T08:16:05.098Z,52
2022-08-03T08:18:05.099Z,53
2022-08-03T08:20:05.160Z,53
2022-08-03T08:22:08.252Z,53
2022-08-03T08:24:08.278Z,52
2022-08-03T08:26:09.727Z,53
2022-08-03T08:30:11.585Z,53
2022-08-03T08:32:06.584Z,52
2022-08-03T08:34:05.234Z,52
2022-08-03T08:36:06.746Z,52
2022-08-03T08:38:12.953Z,52
2022-08-03T08:40:05.385Z,52
2022-08-03T08:44:05.075Z,52
2022-08-03T08:46:03.876Z,51
2022-08-03T08:48:08.180Z,52
2022-08-03T08:50:09.954Z,51
2022-08-03T08:52:05.071Z,52
2022-08-03T08:54:11.412Z,51
2022-08-03T08:56:05.111Z,51
2022-08-03T09:00:05.101Z,51
2022-08-03T09:02:06.477Z,52
2022-08-03T09:04:06.753Z,51
2022-08-03T09:06:06.308Z,51
2022-08-03T09:08:05.102Z,50
2022-08-03T09:10:12.395Z,50
2022-08-03T09:12:21.050Z,51
2022-08-03T09:14:06.759Z,51
2022-08-03T09:16:05.082Z,49
2022-08-03T09:18:05.119Z,50
2022-08-03T09:22:06.423Z,51
2022-08-03T09:24:13.242Z,51
2022-08-03T09:26:09.097Z,49
2022-08-03T09:28:05.069Z,50
2022-08-03T09:30:05.100Z,50
2022-08-03T09:32:08.257Z,50
2022-08-03T09:34:06.344Z,50
2022-08-03T09:36:06.736Z,51
2022-08-03T09:38:08.614Z,51
2022-08-03T09:40:06.576Z,51
2022-08-03T09:42:06.516Z,49
2022-08-03T09:44:05.153Z,49
2022-08-03T09:46:06.540Z,50
2022-08-03T09:48:05.287Z,50
2022-08-03T09:50:06.641Z,50
2022-08-03T09:52:27.372Z,50
2022-08-03T09:54:15.180Z,50
2022-08-03T09:56:35.391Z,50
2022-08-03T09:58:05.100Z,50
2022-08-03T10:00:08.270Z,50
2022-08-03T10:02:05.136Z,46
2022-08-03T10:04:06.864Z,47
2022-08-03T10:06:06.292Z,47
2022-08-03T10:08:05.147Z,46
2022-08-03T10:10:28.783Z,46
2022-08-03T10:12:05.080Z,47
2022-08-03T10:14:06.767Z,46
2022-08-03T10:16:21.073Z,46
2022-08-03T10:18:06.677Z,46
2022-08-03T10:20:05.094Z,45
2022-08-03T10:22:05.137Z,45
2022-08-03T10:24:09.896Z,46
2022-08-03T10:26:09.665Z,45
2022-08-03T10:28:05.419Z,46
2022-08-03T10:30:05.095Z,43
2022-08-03T10:34:08.262Z,44
2022-08-03T10:36:06.640Z,45
2022-08-03T10:38:06.725Z,45
2022-08-03T10:40:06.679Z,45
2022-08-03T10:42:05.437Z,44
2022-08-03T10:44:06.570Z,43
2022-08-03T10:46:05.117Z,43
2022-08-03T10:48:04.488Z,44
2022-08-03T10:50:08.202Z,44
2022-08-03T10:52:09.701Z,44
2022-08-03T10:54:08.011Z,44
2022-08-03T10:56:05.544Z,44
2022-08-03T10:58:09.321Z,43
2022-08-03T11:00:09.770Z,44
2022-08-03T11:02:05.152Z,44
2022-08-03T11:04:09.641Z,44
2022-08-03T11:06:06.600Z,43
2022-08-03T11:08:06.772Z,43
2022-08-03T11:10:10.674Z,43
2022-08-03T11:12:05.087Z,43
2022-08-03T11:14:10.212Z,43
2022-08-03T11:18:06.950Z,44
2022-08-03T11:20:08.343Z,43
2022-08-03T11:22:05.652Z,44
2022-08-03T11:24:07.282Z,44
2022-08-03T11:26:11.771Z,44
2022-08-03T11:28:05.116Z,44
2022-08-03T11:30:05.912Z,43
2022-08-03T11:32:08.261Z,45
2022-08-03T11:34:05.205Z,43
2022-08-03T11:36:08.323Z,43
2022-08-03T11:38:06.410Z,43
2022-08-03T11:40:06.592Z,43
2022-08-03T11:42:05.045Z,43
2022-08-03T11:44:09.491Z,43
2022-08-03T11:46:05.479Z,43
2022-08-03T11:48:06.709Z,43
2022-08-03T11:52:10.125Z,43
2022-08-03T11:54:06.775Z,42
2022-08-03T11:56:05.089Z,43
2022-08-03T12:00:06.676Z,42
2022-08-03T12:02:08.203Z,42
2022-08-03T12:04:07.115Z,42
2022-08-03T12:06:05.121Z,41
2022-08-03T12:08:10.074Z,42
2022-08-03T12:10:11.510Z,43
2022-08-03T12:12:05.145Z,43
2022-08-03T12:14:05.815Z,41
2022-08-03T12:16:06.850Z,41
2022-08-03T12:18:03.673Z,41
2022-08-03T12:20:08.219Z,40
2022-08-03T12:22:05.126Z,40
2022-08-03T12:24:06.523Z,40
2022-08-03T12:28:05.123Z,39
2022-08-03T12:30:05.498Z,40
2022-08-03T12:32:08.218Z,40
2022-08-03T12:34:05.164Z,40
2022-08-03T12:36:05.113Z,41
2022-08-03T12:38:10.007Z,40
2022-08-03T12:40:09.941Z,40
2022-08-03T12:42:11.390Z,41
2022-08-03T12:44:05.101Z,40
2022-08-03T12:46:05.810Z,40
2022-08-03T12:48:05.130Z,41
2022-08-03T12:52:07.645Z,40
2022-08-03T12:54:05.159Z,40
2022-08-03T12:56:06.165Z,40
2022-08-03T12:58:09.727Z,82
2022-08-03T13:00:05.278Z,40
2022-08-03T13:02:09.267Z,39
2022-08-03T13:04:05.142Z,39
2022-08-03T13:06:05.148Z,39
2022-08-03T13:08:05.193Z,40
2022-08-03T13:10:07.986Z,38
2022-08-03T13:12:05.099Z,39
2022-08-03T13:14:06.633Z,39
2022-08-03T13:16:06.547Z,39
2022-08-03T13:18:05.673Z,39
2022-08-03T13:20:04.891Z,38
2022-08-03T13:22:08.328Z,38
2022-08-03T13:24:05.393Z,39
2022-08-03T13:28:12.552Z,39
2022-08-03T13:30:09.974Z,39
2022-08-03T13:34:06.320Z,38
2022-08-03T13:36:06.671Z,38
2022-08-03T13:38:05.359Z,38
2022-08-03T13:40:05.549Z,38
2022-08-03T13:42:05.144Z,39
2022-08-03T13:44:26.380Z,39
2022-08-03T13:46:11.743Z,38
2022-08-03T13:48:06.595Z,38
2022-08-03T13:50:05.303Z,39
2022-08-03T13:52:05.474Z,38
2022-08-03T13:58:07.189Z,39
2022-08-03T14:00:10.139Z,39
2022-08-03T14:02:10.129Z,38
2022-08-03T14:04:06.653Z,39
2022-08-03T14:08:05.544Z,39
2022-08-03T14:10:05.211Z,39
2022-08-03T14:12:07.878Z,38
2022-08-03T14:14:05.412Z,39
2022-08-03T14:16:06.626Z,38
2022-08-03T14:18:12.915Z,39
2022-08-03T14:20:37.546Z,39
2022-08-03T14:22:06.962Z,38
2022-08-03T14:24:05.444Z,38
2022-08-03T14:26:05.138Z,39
2022-08-03T14:30:09.830Z,39
2022-08-03T14:32:13.024Z,38
2022-08-03T14:34:05.109Z,38
2022-08-03T14:36:05.171Z,38
2022-08-03T14:38:05.193Z,38
2022-08-03T14:40:05.315Z,38
2022-08-03T14:42:09.757Z,39
2022-08-03T14:44:05.091Z,38
2022-08-03T14:46:05.110Z,37
2022-08-03T14:49:02.385Z,38
2022-08-03T14:50:29.789Z,37
2022-08-03T14:52:05.074Z,37
2022-08-03T14:54:08.270Z,38
2022-08-03T14:56:14.067Z,38
2022-08-03T14:58:07.245Z,38
2022-08-03T15:02:10.249Z,38
2022-08-03T15:04:08.293Z,37
2022-08-03T15:06:09.817Z,38
2022-08-03T15:08:07.540Z,37
2022-08-03T15:10:10.127Z,37
2022-08-03T15:12:05.118Z,38
2022-08-03T15:14:09.099Z,38
2022-08-03T15:16:05.150Z,37
2022-08-03T15:18:05.154Z,38
2022-08-03T15:22:08.342Z,38
2022-08-03T15:24:05.113Z,37
2022-08-03T15:26:30.164Z,38
2022-08-03T15:28:05.123Z,38
2022-08-03T15:30:10.525Z,38
2022-08-03T15:32:08.795Z,37
2022-08-03T15:34:05.108Z,37
2022-08-03T15:36:05.526Z,38
2022-08-03T15:38:09.554Z,37
2022-08-03T15:40:05.151Z,38
2022-08-03T15:42:06.690Z,37
2022-08-03T15:44:09.341Z,38
2022-08-03T15:46:29.015Z,38
2022-08-03T15:48:05.123Z,37
2022-08-03T15:50:09.568Z,37
2022-08-03T15:52:05.434Z,38
2022-08-03T15:54:06.831Z,37
2022-08-03T15:56:07.965Z,37
2022-08-03T15:58:59.433Z,38
2022-08-03T16:00:10.639Z,37
2022-08-03T16:02:05.178Z,37
2022-08-03T16:04:13.334Z,37
2022-08-03T16:06:05.131Z,37
2022-08-03T16:08:09.131Z,38
2022-08-03T16:10:09.863Z,38
2022-08-03T16:12:05.172Z,37
2022-08-03T16:14:13.907Z,37
2022-08-03T16:16:06.400Z,37
2022-08-03T16:18:05.128Z,38
2022-08-03T16:20:10.743Z,38
2022-08-03T16:22:05.127Z,38
2022-08-03T16:24:06.392Z,37
2022-08-03T16:26:09.075Z,38
2022-08-03T16:30:07.228Z,38
2022-08-03T16:32:09.275Z,37
2022-08-03T16:36:05.142Z,38
2022-08-03T16:38:09.402Z,37
2022-08-03T16:40:05.220Z,37
2022-08-03T16:42:05.140Z,37
2022-08-03T16:44:09.544Z,37
2022-08-03T16:46:05.129Z,38
2022-08-03T16:48:06.762Z,38
2022-08-03T16:50:11.749Z,84
2022-08-03T16:52:07.149Z,37
2022-08-03T16:54:08.106Z,38
2022-08-03T16:56:10.227Z,38
2022-08-03T17:00:11.881Z,39
2022-08-03T17:04:06.758Z,38
2022-08-03T17:06:05.157Z,38
2022-08-03T17:08:08.783Z,39
2022-08-03T17:10:06.761Z,39
2022-08-03T17:12:05.163Z,90
2022-08-03T17:14:09.585Z,39
2022-08-03T17:16:05.144Z,39
2022-08-03T17:18:05.169Z,39
2022-08-03T17:20:09.291Z,39
2022-08-03T17:24:12.195Z,39
2022-08-03T17:26:17.406Z,39
2022-08-03T17:28:42.982Z,39
2022-08-03T17:30:07.644Z,39
2022-08-03T17:36:04.974Z,40
2022-08-03T17:38:07.891Z,40
2022-08-03T17:40:05.513Z,40
2022-08-03T17:42:05.131Z,40
2022-08-03T17:44:14.703Z,40
2022-08-03T17:46:07.288Z,39
2022-08-03T17:48:08.107Z,40
2022-08-03T17:50:09.776Z,39
2022-08-03T17:52:05.124Z,40
2022-08-03T17:54:18.243Z,40
2022-08-03T17:56:07.816Z,40
2022-08-03T17:58:04.939Z,41
2022-08-03T18:00:08.130Z,41
2022-08-03T18:02:10.497Z,41
2022-08-03T18:04:10.825Z,41
2022-08-03T18:06:09.211Z,41
2022-08-03T18:08:09.447Z,41
2022-08-03T18:10:10.914Z,41
2022-08-03T18:12:08.288Z,41
2022-08-03T18:16:08.315Z,41
2022-08-03T18:20:10.753Z,41
2022-08-03T18:22:08.267Z,41
2022-08-03T18:24:06.637Z,42
2022-08-03T18:26:12.555Z,41
2022-08-03T18:28:08.299Z,42
2022-08-03T18:30:08.115Z,41
2022-08-03T18:32:13.087Z,42
2022-08-03T18:34:15.783Z,41
2022-08-03T18:36:09.808Z,42
2022-08-03T18:38:10.326Z,42
2022-08-03T18:40:05.180Z,42
2022-08-03T18:42:06.627Z,42
2022-08-03T18:44:37.290Z,42
2022-08-03T18:46:05.241Z,42
2022-08-03T18:48:05.142Z,42
2022-08-03T18:50:06.772Z,42
2022-08-03T18:52:12.040Z,42
2022-08-03T18:54:46.289Z,43
2022-08-03T18:56:05.130Z,42
2022-08-03T18:58:05.145Z,42
2022-08-03T19:00:05.428Z,42
2022-08-03T19:02:09.852Z,42
2022-08-03T19:04:05.158Z,42
2022-08-03T19:06:13.233Z,44
2022-08-03T19:08:05.163Z,43
2022-08-03T19:10:09.297Z,44
2022-08-03T19:12:11.654Z,44
2022-08-03T19:14:05.143Z,43
2022-08-03T19:16:05.181Z,42
2022-08-03T19:18:08.969Z,42
2022-08-03T19:20:05.708Z,42
2022-08-03T19:22:06.754Z,42
2022-08-03T19:24:09.620Z,42
2022-08-03T19:28:05.986Z,42
2022-08-03T19:30:14.308Z,42
2022-08-03T19:32:05.139Z,99
2022-08-03T19:34:08.632Z,42
2022-08-03T19:36:10.296Z,42
2022-08-03T19:38:13.034Z,42
2022-08-03T19:40:05.188Z,42
2022-08-03T19:42:18.549Z,42
2022-08-03T19:44:06.716Z,41
2022-08-03T19:46:08.352Z,41
2022-08-03T19:48:09.543Z,41
2022-08-03T19:50:10.175Z,41
2022-08-03T19:52:09.886Z,41
2022-08-03T19:54:06.073Z,41
2022-08-03T19:56:05.228Z,41
2022-08-03T19:58:08.314Z,41
2022-08-03T20:00:06.907Z,41
2022-08-03T20:04:05.199Z,41
2022-08-03T20:06:08.146Z,41
2022-08-03T20:08:05.246Z,99
2022-08-03T20:10:06.883Z,41
2022-08-03T20:12:06.794Z,41
2022-08-03T20:14:05.170Z,42
2022-08-03T20:16:08.349Z,42
2022-08-03T20:18:16.705Z,42
2022-08-03T20:20:08.361Z,42
2022-08-03T20:24:23.259Z,42
2022-08-03T20:26:05.169Z,43
2022-08-03T20:28:13.756Z,42
2022-08-03T20:30:09.928Z,42
2022-08-03T20:32:08.386Z,42
2022-08-03T20:34:05.228Z,41
2022-08-03T20:36:08.078Z,41
2022-08-03T20:38:10.234Z,41
2022-08-03T20:40:06.668Z,41
2022-08-03T20:42:11.476Z,41
2022-08-03T20:44:06.949Z,42
2022-08-03T20:46:32.972Z,42
2022-08-03T20:48:13.035Z,42
2022-08-03T20:50:07.491Z,42
2022-08-03T20:54:22.608Z,42
2022-08-03T20:56:10.039Z,42
2022-08-03T20:58:08.121Z,42
2022-08-03T21:00:10.200Z,42
2022-08-03T21:02:08.375Z,43
2022-08-03T21:04:06.876Z,43
2022-08-03T21:06:04.704Z,43
2022-08-03T21:08:07.062Z,44
2022-08-03T21:12:05.198Z,44
2022-08-03T21:16:13.255Z,44
2022-08-03T21:18:05.320Z,44
2022-08-03T21:22:09.892Z,45
2022-08-03T21:24:06.717Z,45
2022-08-03T21:26:05.191Z,46
2022-08-03T21:28:06.811Z,45
2022-08-03T21:30:05.187Z,46
2022-08-03T21:32:05.279Z,46
2022-08-03T21:34:05.181Z,46
2022-08-03T21:36:06.768Z,47
2022-08-03T21:38:06.798Z,47
2022-08-03T21:40:06.907Z,47
2022-08-03T21:42:14.448Z,47
2022-08-03T21:44:05.198Z,48
2022-08-03T21:46:05.162Z,48
2022-08-03T21:48:06.789Z,48
2022-08-03T21:50:09.073Z,48
2022-08-03T21:52:06.827Z,48
2022-08-03T21:54:05.641Z,49
2022-08-03T21:56:05.443Z,49
2022-08-03T21:58:05.236Z,49
2022-08-03T22:00:06.123Z,49
2022-08-03T22:02:06.758Z,49
2022-08-03T22:04:05.211Z,49
2022-08-03T22:06:05.005Z,49
2022-08-03T22:08:07.779Z,50
2022-08-03T22:10:05.487Z,50
2022-08-03T22:12:05.182Z,50
2022-08-03T22:14:05.189Z,50
2022-08-03T22:16:05.178Z,50
2022-08-03T22:18:05.184Z,51
2022-08-03T22:20:10.227Z,51
2022-08-03T22:22:05.201Z,51
2022-08-03T22:24:06.747Z,51
2022-08-03T22:26:13.145Z,51
2022-08-03T22:28:05.165Z,51
2022-08-03T22:30:07.201Z,51
2022-08-03T22:32:05.246Z,51
2022-08-03T22:34:06.905Z,51
2022-08-03T22:38:05.220Z,51
2022-08-03T22:40:06.789Z,52
2022-08-03T22:42:09.956Z,52
2022-08-03T22:44:06.722Z,52
2022-08-03T22:46:08.742Z,52
2022-08-03T22:48:05.177Z,52
2022-08-03T22:50:30.915Z,53
2022-08-03T22:52:06.810Z,53
2022-08-03T22:54:05.215Z,53
2022-08-03T22:56:05.176Z,53
2022-08-03T22:58:05.194Z,53
2022-08-03T23:00:07.119Z,54
2022-08-03T23:02:15.217Z,54
2022-08-03T23:04:11.870Z,53
2022-08-03T23:06:05.482Z,54
2022-08-03T23:08:09.878Z,54
2022-08-03T23:10:05.202Z,54
2022-08-03T23:12:05.206Z,55
2022-08-03T23:14:12.855Z,55
2022-08-03T23:16:05.200Z,55
2022-08-03T23:18:05.193Z,55
2022-08-03T23:20:13.899Z,56
2022-08-03T23:22:16.974Z,56
2022-08-03T23:24:06.779Z,56
2022-08-03T23:26:06.797Z,56
2022-08-03T23:28:08.067Z,56
2022-08-03T23:30:07.178Z,56
2022-08-03T23:32:09.733Z,56
2022-08-03T23:34:08.137Z,56
2022-08-03T23:38:21.728Z,56
2022-08-03T23:42:05.234Z,57
2022-08-03T23:46:05.178Z,56
2022-08-03T23:48:04.713Z,57
2022-08-03T23:50:05.243Z,57
2022-08-03T23:52:09.969Z,58
2022-08-03T23:54:13.080Z,58
2022-08-03T23:56:05.472Z,58
2022-08-03T23:58:05.169Z,58
